sensor_id;sensor_type;location;lat;lon;timestamp;temperature;humidity
55121;DHT22;41019;48.512;9.036;2022-08-30T00:02:17;18.30;91.50
55121;DHT22;41019;48.512;9.036;2022-08-30T00:04:44;18.20;91.30
55121;DHT22;41019;48.512;9.036;2022-08-30T00:07:09;18.20;91.50
55121;DHT22;41019;48.512;9.036;2022-08-30T00:09:35;18.10;91.40
55121;DHT22;41019;48.512;9.036;2022-08-30T00:12:01;18.10;91.50
55121;DHT22;41019;48.512;9.036;2022-08-30T00:14:29;18.10;91.40
55121;DHT22;41019;48.512;9.036;2022-08-30T00:16:55;18.00;91.40
55121;DHT22;41019;48.512;9.036;2022-08-30T00:19:21;18.00;91.40
55121;DHT22;41019;48.512;9.036;2022-08-30T00:21:46;17.90;91.50
55121;DHT22;41019;48.512;9.036;2022-08-30T00:24:12;17.90;91.60
55121;DHT22;41019;48.512;9.036;2022-08-30T00:26:38;17.90;91.70
55121;DHT22;41019;48.512;9.036;2022-08-30T00:29:04;17.80;91.70
55121;DHT22;41019;48.512;9.036;2022-08-30T00:31:30;17.80;91.70
55121;DHT22;41019;48.512;9.036;2022-08-30T00:33:56;17.80;91.80
55121;DHT22;41019;48.512;9.036;2022-08-30T00:36:22;17.70;92.10
55121;DHT22;41019;48.512;9.036;2022-08-30T00:38:48;17.70;92.10
55121;DHT22;41019;48.512;9.036;2022-08-30T00:41:14;17.70;92.10
55121;DHT22;41019;48.512;9.036;2022-08-30T00:43:40;17.60;92.50
55121;DHT22;41019;48.512;9.036;2022-08-30T00:46:06;17.60;92.60
55121;DHT22;41019;48.512;9.036;2022-08-30T00:48:38;17.60;92.30
55121;DHT22;41019;48.512;9.036;2022-08-30T00:51:09;17.50;92.80
55121;DHT22;41019;48.512;9.036;2022-08-30T00:53:41;17.50;92.80
55121;DHT22;41019;48.512;9.036;2022-08-30T00:56:10;17.50;92.60
55121;DHT22;41019;48.512;9.036;2022-08-30T00:58:42;17.40;92.60
55121;DHT22;41019;48.512;9.036;2022-08-30T01:01:09;17.40;92.30
55121;DHT22;41019;48.512;9.036;2022-08-30T01:03:37;17.40;93.20
55121;DHT22;41019;48.512;9.036;2022-08-30T01:06:05;17.40;93.20
55121;DHT22;41019;48.512;9.036;2022-08-30T01:08:33;17.30;92.70
55121;DHT22;41019;48.512;9.036;2022-08-30T01:11:02;17.30;92.50
55121;DHT22;41019;48.512;9.036;2022-08-30T01:13:29;17.30;92.60
55121;DHT22;41019;48.512;9.036;2022-08-30T01:15:56;17.30;92.80
55121;DHT22;41019;48.512;9.036;2022-08-30T01:18:25;17.30;92.80
55121;DHT22;41019;48.512;9.036;2022-08-30T01:23:35;17.20;92.70
55121;DHT22;41019;48.512;9.036;2022-08-30T01:26:03;17.10;92.70
55121;DHT22;41019;48.512;9.036;2022-08-30T01:28:32;17.10;92.80
55121;DHT22;41019;48.512;9.036;2022-08-30T01:30:58;17.10;92.80
55121;DHT22;41019;48.512;9.036;2022-08-30T01:33:25;17.10;92.90
55121;DHT22;41019;48.512;9.036;2022-08-30T01:36:00;17.10;93.00
55121;DHT22;41019;48.512;9.036;2022-08-30T01:38:38;17.10;93.20
55121;DHT22;41019;48.512;9.036;2022-08-30T01:41:29;17.10;93.30
55121;DHT22;41019;48.512;9.036;2022-08-30T01:44:00;17.00;93.00
55121;DHT22;41019;48.512;9.036;2022-08-30T01:46:32;17.00;92.90
55121;DHT22;41019;48.512;9.036;2022-08-30T01:49:03;17.00;93.50
55121;DHT22;41019;48.512;9.036;2022-08-30T01:51:29;17.00;93.50
55121;DHT22;41019;48.512;9.036;2022-08-30T01:53:56;17.00;93.40
55121;DHT22;41019;48.512;9.036;2022-08-30T01:56:25;16.90;93.50
55121;DHT22;41019;48.512;9.036;2022-08-30T01:58:53;16.90;93.80
55121;DHT22;41019;48.512;9.036;2022-08-30T02:01:23;16.90;93.40
55121;DHT22;41019;48.512;9.036;2022-08-30T02:03:54;16.90;93.30
55121;DHT22;41019;48.512;9.036;2022-08-30T02:06:21;16.80;93.50
55121;DHT22;41019;48.512;9.036;2022-08-30T02:08:47;16.80;93.90
55121;DHT22;41019;48.512;9.036;2022-08-30T02:11:15;16.80;93.60
55121;DHT22;41019;48.512;9.036;2022-08-30T02:13:43;16.80;93.60
55121;DHT22;41019;48.512;9.036;2022-08-30T02:16:13;16.80;93.70
55121;DHT22;41019;48.512;9.036;2022-08-30T02:18:41;16.70;93.70
55121;DHT22;41019;48.512;9.036;2022-08-30T02:21:08;16.70;94.00
55121;DHT22;41019;48.512;9.036;2022-08-30T02:23:35;16.70;94.00
55121;DHT22;41019;48.512;9.036;2022-08-30T02:26:03;16.70;93.90
55121;DHT22;41019;48.512;9.036;2022-08-30T02:28:28;16.60;93.50
55121;DHT22;41019;48.512;9.036;2022-08-30T02:30:55;16.60;93.60
55121;DHT22;41019;48.512;9.036;2022-08-30T02:33:21;16.60;93.40
55121;DHT22;41019;48.512;9.036;2022-08-30T02:35:47;16.60;93.30
55121;DHT22;41019;48.512;9.036;2022-08-30T02:38:14;16.60;93.40
55121;DHT22;41019;48.512;9.036;2022-08-30T02:40:40;16.50;93.60
55121;DHT22;41019;48.512;9.036;2022-08-30T02:43:06;16.50;93.80
55121;DHT22;41019;48.512;9.036;2022-08-30T02:45:33;16.50;93.70
55121;DHT22;41019;48.512;9.036;2022-08-30T02:47:59;16.50;93.90
55121;DHT22;41019;48.512;9.036;2022-08-30T02:50:25;16.40;94.00
55121;DHT22;41019;48.512;9.036;2022-08-30T02:52:52;16.40;94.00
55121;DHT22;41019;48.512;9.036;2022-08-30T02:55:18;16.40;94.10
55121;DHT22;41019;48.512;9.036;2022-08-30T02:57:45;16.40;94.60
55121;DHT22;41019;48.512;9.036;2022-08-30T03:00:14;16.40;94.30
55121;DHT22;41019;48.512;9.036;2022-08-30T03:02:41;16.40;94.50
55121;DHT22;41019;48.512;9.036;2022-08-30T03:05:09;16.30;94.20
55121;DHT22;41019;48.512;9.036;2022-08-30T03:07:41;16.30;94.30
55121;DHT22;41019;48.512;9.036;2022-08-30T03:10:08;16.30;93.90
55121;DHT22;41019;48.512;9.036;2022-08-30T03:12:36;16.30;94.10
55121;DHT22;41019;48.512;9.036;2022-08-30T03:15:04;16.30;94.10
55121;DHT22;41019;48.512;9.036;2022-08-30T03:17:31;16.30;94.20
55121;DHT22;41019;48.512;9.036;2022-08-30T03:19:58;16.30;94.40
55121;DHT22;41019;48.512;9.036;2022-08-30T03:22:27;16.30;94.50
55121;DHT22;41019;48.512;9.036;2022-08-30T03:24:54;16.20;94.50
55121;DHT22;41019;48.512;9.036;2022-08-30T03:27:26;16.30;94.60
55121;DHT22;41019;48.512;9.036;2022-08-30T03:29:52;16.20;94.10
55121;DHT22;41019;48.512;9.036;2022-08-30T03:32:18;16.20;94.60
55121;DHT22;41019;48.512;9.036;2022-08-30T03:34:44;16.20;94.80
55121;DHT22;41019;48.512;9.036;2022-08-30T03:37:10;16.20;94.90
55121;DHT22;41019;48.512;9.036;2022-08-30T03:39:37;16.20;95.00
55121;DHT22;41019;48.512;9.036;2022-08-30T03:42:03;16.10;95.00
55121;DHT22;41019;48.512;9.036;2022-08-30T03:44:29;16.20;95.00
55121;DHT22;41019;48.512;9.036;2022-08-30T03:46:55;16.20;94.70
55121;DHT22;41019;48.512;9.036;2022-08-30T03:49:22;16.20;94.80
55121;DHT22;41019;48.512;9.036;2022-08-30T03:51:49;16.10;94.70
55121;DHT22;41019;48.512;9.036;2022-08-30T03:54:16;16.10;94.90
55121;DHT22;41019;48.512;9.036;2022-08-30T03:56:43;16.10;94.90
55121;DHT22;41019;48.512;9.036;2022-08-30T03:59:09;16.10;94.30
55121;DHT22;41019;48.512;9.036;2022-08-30T04:01:35;16.10;94.40
55121;DHT22;41019;48.512;9.036;2022-08-30T04:04:01;16.10;94.60
55121;DHT22;41019;48.512;9.036;2022-08-30T04:06:27;16.10;94.70
55121;DHT22;41019;48.512;9.036;2022-08-30T04:08:53;16.10;94.60
55121;DHT22;41019;48.512;9.036;2022-08-30T04:11:20;16.10;94.90
55121;DHT22;41019;48.512;9.036;2022-08-30T04:13:46;16.00;94.80
55121;DHT22;41019;48.512;9.036;2022-08-30T04:16:14;16.00;94.90
55121;DHT22;41019;48.512;9.036;2022-08-30T04:18:41;16.00;94.80
55121;DHT22;41019;48.512;9.036;2022-08-30T04:21:06;16.00;94.70
55121;DHT22;41019;48.512;9.036;2022-08-30T04:23:33;15.90;94.50
55121;DHT22;41019;48.512;9.036;2022-08-30T04:25:59;15.90;94.30
55121;DHT22;41019;48.512;9.036;2022-08-30T04:28:25;15.90;94.30
55121;DHT22;41019;48.512;9.036;2022-08-30T04:30:51;15.80;94.10
55121;DHT22;41019;48.512;9.036;2022-08-30T04:33:17;15.80;94.60
55121;DHT22;41019;48.512;9.036;2022-08-30T04:35:45;15.80;94.50
55121;DHT22;41019;48.512;9.036;2022-08-30T04:38:12;15.80;94.70
55121;DHT22;41019;48.512;9.036;2022-08-30T04:40:42;15.80;94.70
55121;DHT22;41019;48.512;9.036;2022-08-30T04:43:08;15.80;94.40
55121;DHT22;41019;48.512;9.036;2022-08-30T04:45:37;15.80;94.80
55121;DHT22;41019;48.512;9.036;2022-08-30T04:48:05;15.80;94.90
55121;DHT22;41019;48.512;9.036;2022-08-30T04:50:31;15.70;94.50
55121;DHT22;41019;48.512;9.036;2022-08-30T04:52:57;15.70;94.50
55121;DHT22;41019;48.512;9.036;2022-08-30T04:55:25;15.70;94.50
55121;DHT22;41019;48.512;9.036;2022-08-30T04:57:51;15.70;94.60
55121;DHT22;41019;48.512;9.036;2022-08-30T05:00:18;15.70;94.70
55121;DHT22;41019;48.512;9.036;2022-08-30T05:02:48;15.70;94.70
55121;DHT22;41019;48.512;9.036;2022-08-30T05:05:14;15.70;94.80
55121;DHT22;41019;48.512;9.036;2022-08-30T05:07:59;15.60;94.90
55121;DHT22;41019;48.512;9.036;2022-08-30T05:10:25;15.60;95.00
55121;DHT22;41019;48.512;9.036;2022-08-30T05:12:53;15.60;95.00
55121;DHT22;41019;48.512;9.036;2022-08-30T05:15:20;15.70;94.90
55121;DHT22;41019;48.512;9.036;2022-08-30T05:17:47;15.70;94.90
55121;DHT22;41019;48.512;9.036;2022-08-30T05:20:14;15.70;95.10
55121;DHT22;41019;48.512;9.036;2022-08-30T05:22:42;15.70;95.30
55121;DHT22;41019;48.512;9.036;2022-08-30T05:25:17;15.70;95.40
55121;DHT22;41019;48.512;9.036;2022-08-30T05:27:45;15.70;95.50
55121;DHT22;41019;48.512;9.036;2022-08-30T05:30:12;15.80;95.40
55121;DHT22;41019;48.512;9.036;2022-08-30T05:32:40;15.80;95.60
55121;DHT22;41019;48.512;9.036;2022-08-30T05:35:07;15.80;95.70
55121;DHT22;41019;48.512;9.036;2022-08-30T05:37:34;15.90;95.40
55121;DHT22;41019;48.512;9.036;2022-08-30T05:40:00;15.90;95.50
55121;DHT22;41019;48.512;9.036;2022-08-30T05:42:26;16.00;95.50
55121;DHT22;41019;48.512;9.036;2022-08-30T05:44:53;16.00;95.60
55121;DHT22;41019;48.512;9.036;2022-08-30T05:47:20;16.00;95.60
55121;DHT22;41019;48.512;9.036;2022-08-30T05:49:47;16.10;95.70
55121;DHT22;41019;48.512;9.036;2022-08-30T05:52:14;16.10;95.40
55121;DHT22;41019;48.512;9.036;2022-08-30T05:54:43;16.20;95.20
55121;DHT22;41019;48.512;9.036;2022-08-30T05:57:10;16.30;95.10
55121;DHT22;41019;48.512;9.036;2022-08-30T05:59:36;16.30;95.10
55121;DHT22;41019;48.512;9.036;2022-08-30T06:02:03;16.40;94.90
55121;DHT22;41019;48.512;9.036;2022-08-30T06:04:29;16.40;94.90
55121;DHT22;41019;48.512;9.036;2022-08-30T06:06:54;16.40;94.80
55121;DHT22;41019;48.512;9.036;2022-08-30T06:09:21;16.50;94.60
55121;DHT22;41019;48.512;9.036;2022-08-30T06:11:48;16.50;94.40
55121;DHT22;41019;48.512;9.036;2022-08-30T06:14:14;16.60;94.30
55121;DHT22;41019;48.512;9.036;2022-08-30T06:16:41;16.60;94.10
55121;DHT22;41019;48.512;9.036;2022-08-30T06:19:12;16.70;94.20
55121;DHT22;41019;48.512;9.036;2022-08-30T06:21:40;16.80;94.10
55121;DHT22;41019;48.512;9.036;2022-08-30T06:24:09;16.80;94.10
55121;DHT22;41019;48.512;9.036;2022-08-30T06:26:44;16.90;94.40
55121;DHT22;41019;48.512;9.036;2022-08-30T06:29:14;16.90;94.30
55121;DHT22;41019;48.512;9.036;2022-08-30T06:31:40;17.00;93.50
55121;DHT22;41019;48.512;9.036;2022-08-30T06:34:06;17.10;93.50
55121;DHT22;41019;48.512;9.036;2022-08-30T06:36:32;17.10;93.40
55121;DHT22;41019;48.512;9.036;2022-08-30T06:38:59;17.20;93.30
55121;DHT22;41019;48.512;9.036;2022-08-30T06:41:28;17.20;93.00
55121;DHT22;41019;48.512;9.036;2022-08-30T06:43:56;17.30;93.10
55121;DHT22;41019;48.512;9.036;2022-08-30T06:46:25;17.40;93.00
55121;DHT22;41019;48.512;9.036;2022-08-30T06:48:53;17.40;92.80
55121;DHT22;41019;48.512;9.036;2022-08-30T06:51:26;17.50;92.80
55121;DHT22;41019;48.512;9.036;2022-08-30T06:53:53;17.60;92.70
55121;DHT22;41019;48.512;9.036;2022-08-30T06:56:21;17.70;92.50
55121;DHT22;41019;48.512;9.036;2022-08-30T06:58:47;17.90;91.80
55121;DHT22;41019;48.512;9.036;2022-08-30T07:01:19;18.00;90.60
55121;DHT22;41019;48.512;9.036;2022-08-30T07:03:45;18.10;90.50
55121;DHT22;41019;48.512;9.036;2022-08-30T07:06:11;18.20;89.80
55121;DHT22;41019;48.512;9.036;2022-08-30T07:08:38;18.40;88.80
55121;DHT22;41019;48.512;9.036;2022-08-30T07:11:06;18.60;88.00
55121;DHT22;41019;48.512;9.036;2022-08-30T07:13:36;18.70;87.10
55121;DHT22;41019;48.512;9.036;2022-08-30T07:16:09;18.90;88.10
55121;DHT22;41019;48.512;9.036;2022-08-30T07:18:35;19.10;85.40
55121;DHT22;41019;48.512;9.036;2022-08-30T07:21:26;19.30;84.60
55121;DHT22;41019;48.512;9.036;2022-08-30T07:23:54;19.50;83.70
55121;DHT22;41019;48.512;9.036;2022-08-30T07:26:28;19.70;83.00
55121;DHT22;41019;48.512;9.036;2022-08-30T07:28:55;19.80;81.00
55121;DHT22;41019;48.512;9.036;2022-08-30T07:31:23;20.10;81.20
55121;DHT22;41019;48.512;9.036;2022-08-30T07:33:49;20.30;79.90
55121;DHT22;41019;48.512;9.036;2022-08-30T07:36:16;20.40;79.00
55121;DHT22;41019;48.512;9.036;2022-08-30T07:38:45;20.60;79.10
55121;DHT22;41019;48.512;9.036;2022-08-30T07:41:21;20.70;78.00
55121;DHT22;41019;48.512;9.036;2022-08-30T07:43:48;20.90;77.60
55121;DHT22;41019;48.512;9.036;2022-08-30T07:46:14;21.00;77.70
55121;DHT22;41019;48.512;9.036;2022-08-30T07:48:40;21.10;77.30
55121;DHT22;41019;48.512;9.036;2022-08-30T07:51:12;21.20;75.80
55121;DHT22;41019;48.512;9.036;2022-08-30T07:53:40;21.30;76.80
55121;DHT22;41019;48.512;9.036;2022-08-30T07:56:06;21.50;75.00
55121;DHT22;41019;48.512;9.036;2022-08-30T07:58:32;21.60;74.70
55121;DHT22;41019;48.512;9.036;2022-08-30T08:00:58;21.70;74.60
55121;DHT22;41019;48.512;9.036;2022-08-30T08:03:26;21.90;74.00
55121;DHT22;41019;48.512;9.036;2022-08-30T08:05:51;22.00;73.60
55121;DHT22;41019;48.512;9.036;2022-08-30T08:08:21;22.20;72.60
55121;DHT22;41019;48.512;9.036;2022-08-30T08:10:47;22.20;72.00
55121;DHT22;41019;48.512;9.036;2022-08-30T08:13:14;22.40;72.20
55121;DHT22;41019;48.512;9.036;2022-08-30T08:15:39;22.60;72.40
55121;DHT22;41019;48.512;9.036;2022-08-30T08:18:06;22.80;71.40
55121;DHT22;41019;48.512;9.036;2022-08-30T08:20:33;23.00;70.00
55121;DHT22;41019;48.512;9.036;2022-08-30T08:22:59;23.20;69.00
55121;DHT22;41019;48.512;9.036;2022-08-30T08:25:26;23.40;69.00
55121;DHT22;41019;48.512;9.036;2022-08-30T08:27:52;23.60;68.40
55121;DHT22;41019;48.512;9.036;2022-08-30T08:30:19;23.80;68.10
55121;DHT22;41019;48.512;9.036;2022-08-30T08:32:46;24.00;67.40
55121;DHT22;41019;48.512;9.036;2022-08-30T08:35:13;24.30;66.40
55121;DHT22;41019;48.512;9.036;2022-08-30T08:37:40;24.40;65.80
55121;DHT22;41019;48.512;9.036;2022-08-30T08:40:08;24.70;64.80
55121;DHT22;41019;48.512;9.036;2022-08-30T08:50:19;25.50;61.80
55121;DHT22;41019;48.512;9.036;2022-08-30T08:55:47;25.80;60.10
55121;DHT22;41019;48.512;9.036;2022-08-30T08:58:22;26.10;58.50
55121;DHT22;41019;48.512;9.036;2022-08-30T09:00:49;26.30;59.00
55121;DHT22;41019;48.512;9.036;2022-08-30T09:03:19;26.40;58.10
55121;DHT22;41019;48.512;9.036;2022-08-30T09:05:46;26.70;56.70
55121;DHT22;41019;48.512;9.036;2022-08-30T09:08:16;26.80;57.30
55121;DHT22;41019;48.512;9.036;2022-08-30T09:10:56;26.90;55.90
55121;DHT22;41019;48.512;9.036;2022-08-30T09:13:25;27.10;55.20
55121;DHT22;41019;48.512;9.036;2022-08-30T09:15:54;27.30;55.30
55121;DHT22;41019;48.512;9.036;2022-08-30T09:18:45;27.40;55.00
55121;DHT22;41019;48.512;9.036;2022-08-30T09:21:20;27.60;54.50
55121;DHT22;41019;48.512;9.036;2022-08-30T09:23:54;27.60;54.00
55121;DHT22;41019;48.512;9.036;2022-08-30T09:26:34;28.00;53.40
55121;DHT22;41019;48.512;9.036;2022-08-30T09:29:01;28.20;52.90
55121;DHT22;41019;48.512;9.036;2022-08-30T09:31:46;28.40;52.30
55121;DHT22;41019;48.512;9.036;2022-08-30T09:34:19;28.50;51.30
55121;DHT22;41019;48.512;9.036;2022-08-30T09:36:47;28.60;51.20
55121;DHT22;41019;48.512;9.036;2022-08-30T09:39:32;28.90;50.90
55121;DHT22;41019;48.512;9.036;2022-08-30T09:42:24;29.20;50.00
55121;DHT22;41019;48.512;9.036;2022-08-30T09:44:52;29.30;49.80
55121;DHT22;41019;48.512;9.036;2022-08-30T09:47:29;29.40;49.10
55121;DHT22;41019;48.512;9.036;2022-08-30T09:50:10;29.60;48.20
55121;DHT22;41019;48.512;9.036;2022-08-30T09:57:54;29.90;46.20
55121;DHT22;41019;48.512;9.036;2022-08-30T10:00:25;30.20;47.50
55121;DHT22;41019;48.512;9.036;2022-08-30T10:03:22;30.30;45.80
55121;DHT22;41019;48.512;9.036;2022-08-30T10:06:13;30.20;44.60
55121;DHT22;41019;48.512;9.036;2022-08-30T10:14:41;30.60;44.70
55121;DHT22;41019;48.512;9.036;2022-08-30T10:17:36;30.80;45.00
55121;DHT22;41019;48.512;9.036;2022-08-30T10:20:33;31.00;44.30
55121;DHT22;41019;48.512;9.036;2022-08-30T10:23:20;31.00;43.70
55121;DHT22;41019;48.512;9.036;2022-08-30T10:25:52;31.00;42.20
55121;DHT22;41019;48.512;9.036;2022-08-30T10:34:28;31.00;41.40
55121;DHT22;41019;48.512;9.036;2022-08-30T10:37:00;31.10;40.70
55121;DHT22;41019;48.512;9.036;2022-08-30T10:39:36;31.00;41.60
55121;DHT22;41019;48.512;9.036;2022-08-30T10:42:22;31.00;42.10
55121;DHT22;41019;48.512;9.036;2022-08-30T10:45:06;31.30;43.00
55121;DHT22;41019;48.512;9.036;2022-08-30T10:47:36;31.30;41.30
55121;DHT22;41019;48.512;9.036;2022-08-30T10:50:28;31.30;41.30
55121;DHT22;41019;48.512;9.036;2022-08-30T10:53:11;31.30;40.00
55121;DHT22;41019;48.512;9.036;2022-08-30T10:55:55;31.40;40.80
55121;DHT22;41019;48.512;9.036;2022-08-30T10:58:25;31.30;40.40
55121;DHT22;41019;48.512;9.036;2022-08-30T11:07:09;31.40;41.30
55121;DHT22;41019;48.512;9.036;2022-08-30T11:09:55;31.60;39.30
55121;DHT22;41019;48.512;9.036;2022-08-30T11:13:10;31.60;38.70
55121;DHT22;41019;48.512;9.036;2022-08-30T11:15:57;31.70;40.30
55121;DHT22;41019;48.512;9.036;2022-08-30T11:18:28;31.80;41.30
55121;DHT22;41019;48.512;9.036;2022-08-30T11:21:17;31.70;40.10
55121;DHT22;41019;48.512;9.036;2022-08-30T11:24:00;31.50;40.00
55121;DHT22;41019;48.512;9.036;2022-08-30T11:31:53;31.30;41.00
55121;DHT22;41019;48.512;9.036;2022-08-30T11:40:02;31.50;41.10
55121;DHT22;41019;48.512;9.036;2022-08-30T11:47:58;31.90;41.70
55121;DHT22;41019;48.512;9.036;2022-08-30T11:50:48;31.90;40.90
55121;DHT22;41019;48.512;9.036;2022-08-30T11:53:43;32.00;41.30
55121;DHT22;41019;48.512;9.036;2022-08-30T11:56:34;31.90;40.60
55121;DHT22;41019;48.512;9.036;2022-08-30T11:59:36;31.80;40.00
55121;DHT22;41019;48.512;9.036;2022-08-30T12:02:05;31.90;40.10
55121;DHT22;41019;48.512;9.036;2022-08-30T12:04:46;32.00;40.50
55121;DHT22;41019;48.512;9.036;2022-08-30T12:07:54;32.10;40.00
55121;DHT22;41019;48.512;9.036;2022-08-30T12:10:24;32.20;40.30
55121;DHT22;41019;48.512;9.036;2022-08-30T12:13:00;32.20;39.10
55121;DHT22;41019;48.512;9.036;2022-08-30T12:15:59;32.30;40.10
55121;DHT22;41019;48.512;9.036;2022-08-30T12:18:48;32.40;41.50
55121;DHT22;41019;48.512;9.036;2022-08-30T12:26:37;33.10;40.00
55121;DHT22;41019;48.512;9.036;2022-08-30T12:29:12;33.40;38.60
55121;DHT22;41019;48.512;9.036;2022-08-30T12:34:24;33.90;36.30
55121;DHT22;41019;48.512;9.036;2022-08-30T12:36:55;34.00;36.40
55121;DHT22;41019;48.512;9.036;2022-08-30T12:39:35;33.90;36.40
55121;DHT22;41019;48.512;9.036;2022-08-30T12:42:21;33.90;36.20
55121;DHT22;41019;48.512;9.036;2022-08-30T12:44:51;33.90;36.90
55121;DHT22;41019;48.512;9.036;2022-08-30T12:47:25;33.90;36.40
55121;DHT22;41019;48.512;9.036;2022-08-30T12:49:54;33.90;36.40
55121;DHT22;41019;48.512;9.036;2022-08-30T12:52:34;34.00;36.00
55121;DHT22;41019;48.512;9.036;2022-08-30T12:55:23;34.10;35.90
55121;DHT22;41019;48.512;9.036;2022-08-30T12:58:09;34.10;35.20
55121;DHT22;41019;48.512;9.036;2022-08-30T13:00:39;34.00;35.10
55121;DHT22;41019;48.512;9.036;2022-08-30T13:03:27;33.90;34.70
55121;DHT22;41019;48.512;9.036;2022-08-30T13:05:55;33.80;35.10
55121;DHT22;41019;48.512;9.036;2022-08-30T13:08:28;33.80;34.40
55121;DHT22;41019;48.512;9.036;2022-08-30T13:10:59;33.70;34.20
55121;DHT22;41019;48.512;9.036;2022-08-30T13:15:54;33.70;35.00
55121;DHT22;41019;48.512;9.036;2022-08-30T13:18:29;33.70;34.40
55121;DHT22;41019;48.512;9.036;2022-08-30T13:23:54;33.60;34.30
55121;DHT22;41019;48.512;9.036;2022-08-30T13:26:21;33.60;35.50
55121;DHT22;41019;48.512;9.036;2022-08-30T13:28:54;33.50;35.00
55121;DHT22;41019;48.512;9.036;2022-08-30T13:31:21;33.30;34.30
55121;DHT22;41019;48.512;9.036;2022-08-30T13:33:47;33.10;35.00
55121;DHT22;41019;48.512;9.036;2022-08-30T13:36:20;33.00;34.80
55121;DHT22;41019;48.512;9.036;2022-08-30T13:38:48;33.00;34.80
55121;DHT22;41019;48.512;9.036;2022-08-30T13:41:15;32.90;35.20
55121;DHT22;41019;48.512;9.036;2022-08-30T13:43:41;33.00;35.20
55121;DHT22;41019;48.512;9.036;2022-08-30T13:46:09;33.00;35.00
55121;DHT22;41019;48.512;9.036;2022-08-30T13:48:37;32.90;34.70
55121;DHT22;41019;48.512;9.036;2022-08-30T13:51:03;32.70;34.70
55121;DHT22;41019;48.512;9.036;2022-08-30T13:53:29;32.60;34.90
55121;DHT22;41019;48.512;9.036;2022-08-30T13:55:56;32.60;34.90
55121;DHT22;41019;48.512;9.036;2022-08-30T13:58:22;32.50;35.00
55121;DHT22;41019;48.512;9.036;2022-08-30T14:00:48;32.40;35.70
55121;DHT22;41019;48.512;9.036;2022-08-30T14:03:14;32.30;35.40
55121;DHT22;41019;48.512;9.036;2022-08-30T14:05:42;31.80;35.70
55121;DHT22;41019;48.512;9.036;2022-08-30T14:08:12;31.80;36.40
55121;DHT22;41019;48.512;9.036;2022-08-30T14:10:39;31.80;37.00
55121;DHT22;41019;48.512;9.036;2022-08-30T14:13:05;31.70;37.10
55121;DHT22;41019;48.512;9.036;2022-08-30T14:15:32;31.50;36.90
55121;DHT22;41019;48.512;9.036;2022-08-30T14:17:59;31.40;36.70
55121;DHT22;41019;48.512;9.036;2022-08-30T14:20:25;31.50;36.90
55121;DHT22;41019;48.512;9.036;2022-08-30T14:22:51;31.30;37.60
55121;DHT22;41019;48.512;9.036;2022-08-30T14:25:17;31.20;37.00
55121;DHT22;41019;48.512;9.036;2022-08-30T14:27:43;31.30;36.60
55121;DHT22;41019;48.512;9.036;2022-08-30T14:30:09;31.30;37.30
55121;DHT22;41019;48.512;9.036;2022-08-30T14:32:36;31.30;37.10
55121;DHT22;41019;48.512;9.036;2022-08-30T14:35:02;31.20;37.80
55121;DHT22;41019;48.512;9.036;2022-08-30T14:37:28;31.20;37.50
55121;DHT22;41019;48.512;9.036;2022-08-30T14:39:54;31.20;37.90
55121;DHT22;41019;48.512;9.036;2022-08-30T14:42:20;31.30;37.50
55121;DHT22;41019;48.512;9.036;2022-08-30T14:44:46;31.40;37.80
55121;DHT22;41019;48.512;9.036;2022-08-30T14:47:13;31.30;37.60
55121;DHT22;41019;48.512;9.036;2022-08-30T14:49:39;31.30;37.30
55121;DHT22;41019;48.512;9.036;2022-08-30T14:52:05;31.20;36.70
55121;DHT22;41019;48.512;9.036;2022-08-30T14:54:31;31.20;37.30
55121;DHT22;41019;48.512;9.036;2022-08-30T14:56:58;31.10;37.70
55121;DHT22;41019;48.512;9.036;2022-08-30T14:59:25;31.00;37.40
55121;DHT22;41019;48.512;9.036;2022-08-30T15:01:51;31.00;37.20
55121;DHT22;41019;48.512;9.036;2022-08-30T15:04:18;31.10;37.90
55121;DHT22;41019;48.512;9.036;2022-08-30T15:06:46;31.00;37.80
55121;DHT22;41019;48.512;9.036;2022-08-30T15:09:15;31.00;37.70
55121;DHT22;41019;48.512;9.036;2022-08-30T15:11:43;30.90;37.90
55121;DHT22;41019;48.512;9.036;2022-08-30T15:14:10;30.80;38.00
55121;DHT22;41019;48.512;9.036;2022-08-30T15:16:37;30.70;38.10
55121;DHT22;41019;48.512;9.036;2022-08-30T15:19:06;30.60;38.40
55121;DHT22;41019;48.512;9.036;2022-08-30T15:21:41;30.60;38.30
55121;DHT22;41019;48.512;9.036;2022-08-30T15:24:10;30.60;38.60
55121;DHT22;41019;48.512;9.036;2022-08-30T15:26:37;30.50;38.90
55121;DHT22;41019;48.512;9.036;2022-08-30T15:29:07;30.50;38.60
55121;DHT22;41019;48.512;9.036;2022-08-30T15:31:33;30.50;38.50
55121;DHT22;41019;48.512;9.036;2022-08-30T15:33:59;30.40;38.60
55121;DHT22;41019;48.512;9.036;2022-08-30T15:36:27;30.30;38.60
55121;DHT22;41019;48.512;9.036;2022-08-30T15:38:54;30.20;38.90
55121;DHT22;41019;48.512;9.036;2022-08-30T15:41:22;30.20;38.40
55121;DHT22;41019;48.512;9.036;2022-08-30T15:43:48;30.20;38.20
55121;DHT22;41019;48.512;9.036;2022-08-30T15:48:45;30.00;39.00
55121;DHT22;41019;48.512;9.036;2022-08-30T15:51:12;30.00;39.40
55121;DHT22;41019;48.512;9.036;2022-08-30T15:53:38;29.80;39.10
55121;DHT22;41019;48.512;9.036;2022-08-30T15:56:05;29.80;39.30
55121;DHT22;41019;48.512;9.036;2022-08-30T15:58:31;29.70;39.10
55121;DHT22;41019;48.512;9.036;2022-08-30T16:00:56;29.50;39.30
55121;DHT22;41019;48.512;9.036;2022-08-30T16:03:22;29.40;39.70
55121;DHT22;41019;48.512;9.036;2022-08-30T16:05:48;29.30;39.30
55121;DHT22;41019;48.512;9.036;2022-08-30T16:08:15;29.20;39.90
55121;DHT22;41019;48.512;9.036;2022-08-30T16:10:41;29.00;39.90
55121;DHT22;41019;48.512;9.036;2022-08-30T16:13:06;28.90;40.20
55121;DHT22;41019;48.512;9.036;2022-08-30T16:15:33;28.90;40.50
55121;DHT22;41019;48.512;9.036;2022-08-30T16:17:58;28.80;40.90
55121;DHT22;41019;48.512;9.036;2022-08-30T16:20:24;28.70;40.90
55121;DHT22;41019;48.512;9.036;2022-08-30T16:22:50;28.60;40.70
55121;DHT22;41019;48.512;9.036;2022-08-30T16:25:17;28.60;41.10
55121;DHT22;41019;48.512;9.036;2022-08-30T16:27:43;28.60;41.20
55121;DHT22;41019;48.512;9.036;2022-08-30T16:30:10;28.50;41.70
55121;DHT22;41019;48.512;9.036;2022-08-30T16:32:36;28.50;41.50
55121;DHT22;41019;48.512;9.036;2022-08-30T16:35:04;28.50;41.60
55121;DHT22;41019;48.512;9.036;2022-08-30T16:37:30;28.40;41.70
55121;DHT22;41019;48.512;9.036;2022-08-30T16:39:56;28.40;41.70
55121;DHT22;41019;48.512;9.036;2022-08-30T16:42:22;28.30;41.40
55121;DHT22;41019;48.512;9.036;2022-08-30T16:44:50;28.30;42.00
55121;DHT22;41019;48.512;9.036;2022-08-30T16:47:16;28.30;42.00
55121;DHT22;41019;48.512;9.036;2022-08-30T16:49:41;28.30;42.00
55121;DHT22;41019;48.512;9.036;2022-08-30T16:52:08;28.20;42.00
55121;DHT22;41019;48.512;9.036;2022-08-30T16:54:36;28.20;42.70
55121;DHT22;41019;48.512;9.036;2022-08-30T16:57:02;28.10;42.20